sensor_id;sensor_type;location;lat;lon;timestamp;pressure;altitude;pressure_sealevel;temperature;humidity
34177;BME280;20450;49.074;9.158;2023-03-14T00:00:17;98054.06;;;11.09;84.46
34177;BME280;20450;49.074;9.158;2023-03-14T00:02:45;98049.03;;;11.17;83.31
34177;BME280;20450;49.074;9.158;2023-03-14T00:05:12;98057.91;;;11.13;84.08
34177;BME280;20450;49.074;9.158;2023-03-14T00:07:39;98060.28;;;11.09;84.97
34177;BME280;20450;49.074;9.158;2023-03-14T00:10:10;98064.16;;;11.18;83.35
34177;BME280;20450;49.074;9.158;2023-03-14T00:12:39;98072.72;;;11.10;84.91
34177;BME280;20450;49.074;9.158;2023-03-14T00:15:08;98078.63;;;11.07;84.66
34177;BME280;20450;49.074;9.158;2023-03-14T00:17:36;98093.03;;;11.13;84.33
34177;BME280;20450;49.074;9.158;2023-03-14T00:20:06;98098.97;;;11.15;84.92
34177;BME280;20450;49.074;9.158;2023-03-14T00:22:34;98098.38;;;11.08;85.52
34177;BME280;20450;49.074;9.158;2023-03-14T00:25:02;98108.69;;;11.11;84.81
34177;BME280;20450;49.074;9.158;2023-03-14T00:27:32;98102.97;;;11.07;85.26
34177;BME280;20450;49.074;9.158;2023-03-14T00:30:00;98100.88;;;11.14;84.60
34177;BME280;20450;49.074;9.158;2023-03-14T00:32:28;98098.69;;;11.11;85.20
34177;BME280;20450;49.074;9.158;2023-03-14T00:34:55;98094.09;;;11.12;84.74
34177;BME280;20450;49.074;9.158;2023-03-14T00:37:22;98089.50;;;11.12;84.62
34177;BME280;20450;49.074;9.158;2023-03-14T00:39:51;98094.72;;;11.19;83.57
34177;BME280;20450;49.074;9.158;2023-03-14T00:42:20;98087.41;;;11.19;84.01
34177;BME280;20450;49.074;9.158;2023-03-14T00:44:49;98096.84;;;11.17;84.81
34177;BME280;20450;49.074;9.158;2023-03-14T00:47:16;98096.59;;;11.18;84.47
34177;BME280;20450;49.074;9.158;2023-03-14T00:49:43;98109.44;;;11.06;85.72
34177;BME280;20450;49.074;9.158;2023-03-14T00:52:11;98100.50;;;11.06;84.63
34177;BME280;20450;49.074;9.158;2023-03-14T00:54:38;98094.56;;;11.04;85.21
34177;BME280;20450;49.074;9.158;2023-03-14T00:57:05;98094.25;;;11.00;85.01
34177;BME280;20450;49.074;9.158;2023-03-14T00:59:32;98095.41;;;11.09;84.60
34177;BME280;20450;49.074;9.158;2023-03-14T01:02:00;98098.69;;;11.11;84.19
34177;BME280;20450;49.074;9.158;2023-03-14T01:04:27;98092.47;;;11.11;85.27
34177;BME280;20450;49.074;9.158;2023-03-14T01:06:55;98106.28;;;11.14;84.81
34177;BME280;20450;49.074;9.158;2023-03-14T01:09:22;98100.31;;;11.12;85.18
34177;BME280;20450;49.074;9.158;2023-03-14T01:11:49;98109.00;;;11.14;85.09
34177;BME280;20450;49.074;9.158;2023-03-14T01:14:16;98102.50;;;11.15;84.57
34177;BME280;20450;49.074;9.158;2023-03-14T01:16:43;98099.50;;;11.12;84.95
34177;BME280;20450;49.074;9.158;2023-03-14T01:19:11;98084.09;;;11.12;85.01
34177;BME280;20450;49.074;9.158;2023-03-14T01:21:38;98091.44;;;11.17;84.22
34177;BME280;20450;49.074;9.158;2023-03-14T01:24:06;98092.47;;;11.11;84.66
34177;BME280;20450;49.074;9.158;2023-03-14T01:26:35;98084.31;;;11.06;85.45
34177;BME280;20450;49.074;9.158;2023-03-14T01:29:04;98079.81;;;11.16;84.41
34177;BME280;20450;49.074;9.158;2023-03-14T01:31:33;98069.81;;;11.17;84.00
34177;BME280;20450;49.074;9.158;2023-03-14T01:34:01;98057.06;;;11.12;84.60
34177;BME280;20450;49.074;9.158;2023-03-14T01:36:29;98052.28;;;11.19;84.78
34177;BME280;20450;49.074;9.158;2023-03-14T01:38:59;98033.88;;;11.16;84.74
34177;BME280;20450;49.074;9.158;2023-03-14T01:41:27;98017.63;;;11.11;84.56
34177;BME280;20450;49.074;9.158;2023-03-14T01:43:56;98003.28;;;11.11;84.39
34177;BME280;20450;49.074;9.158;2023-03-14T01:46:30;98005.22;;;11.15;84.83
34177;BME280;20450;49.074;9.158;2023-03-14T01:52:05;97986.03;;;11.17;84.85
34177;BME280;20450;49.074;9.158;2023-03-14T01:54:39;97986.50;;;11.09;84.54
34177;BME280;20450;49.074;9.158;2023-03-14T01:57:12;97971.13;;;11.09;84.06
34177;BME280;20450;49.074;9.158;2023-03-14T01:59:47;97976.00;;;11.12;83.94
34177;BME280;20450;49.074;9.158;2023-03-14T02:02:19;97980.59;;;11.12;84.39
34177;BME280;20450;49.074;9.158;2023-03-14T02:04:47;97983.03;;;11.13;84.25
34177;BME280;20450;49.074;9.158;2023-03-14T02:07:20;97976.28;;;11.11;83.81
34177;BME280;20450;49.074;9.158;2023-03-14T02:10:11;97976.84;;;11.18;83.12
34177;BME280;20450;49.074;9.158;2023-03-14T02:12:39;97978.47;;;11.14;83.44
34177;BME280;20450;49.074;9.158;2023-03-14T02:15:29;97978.75;;;11.17;83.76
34177;BME280;20450;49.074;9.158;2023-03-14T02:18:01;97975.69;;;11.09;83.37
34177;BME280;20450;49.074;9.158;2023-03-14T02:20:50;97974.09;;;11.08;83.00
34177;BME280;20450;49.074;9.158;2023-03-14T02:23:31;97967.97;;;11.17;82.56
34177;BME280;20450;49.074;9.158;2023-03-14T02:26:09;97974.66;;;11.15;83.13
34177;BME280;20450;49.074;9.158;2023-03-14T02:28:43;97965.19;;;11.12;82.49
34177;BME280;20450;49.074;9.158;2023-03-14T02:31:11;97963.59;;;11.16;82.38
34177;BME280;20450;49.074;9.158;2023-03-14T02:33:38;97968.75;;;11.18;81.93
34177;BME280;20450;49.074;9.158;2023-03-14T02:36:07;97948.78;;;11.19;81.78
34177;BME280;20450;49.074;9.158;2023-03-14T02:38:45;97945.50;;;11.17;81.97
34177;BME280;20450;49.074;9.158;2023-03-14T02:41:18;97938.53;;;11.26;81.12
34177;BME280;20450;49.074;9.158;2023-03-14T02:43:57;97936.63;;;11.26;81.04
34177;BME280;20450;49.074;9.158;2023-03-14T02:46:24;97934.47;;;11.23;80.87
34177;BME280;20450;49.074;9.158;2023-03-14T02:48:53;97930.97;;;11.23;81.29
34177;BME280;20450;49.074;9.158;2023-03-14T02:51:24;97922.81;;;11.18;81.66
34177;BME280;20450;49.074;9.158;2023-03-14T02:53:52;97931.22;;;11.21;80.85
34177;BME280;20450;49.074;9.158;2023-03-14T02:56:21;97922.53;;;11.19;80.67
34177;BME280;20450;49.074;9.158;2023-03-14T02:58:48;97916.88;;;11.16;80.37
34177;BME280;20450;49.074;9.158;2023-03-14T03:01:27;97927.16;;;11.19;80.06
34177;BME280;20450;49.074;9.158;2023-03-14T03:03:54;97920.38;;;11.16;79.39
34177;BME280;20450;49.074;9.158;2023-03-14T03:06:21;97914.97;;;11.16;79.47
34177;BME280;20450;49.074;9.158;2023-03-14T03:08:48;97921.97;;;11.12;79.92
34177;BME280;20450;49.074;9.158;2023-03-14T03:11:16;97912.50;;;11.15;79.01
34177;BME280;20450;49.074;9.158;2023-03-14T03:13:43;97898.13;;;11.04;79.09
34177;BME280;20450;49.074;9.158;2023-03-14T03:16:11;97910.84;;;11.09;79.20
34177;BME280;20450;49.074;9.158;2023-03-14T03:18:39;97910.59;;;11.05;79.25
34177;BME280;20450;49.074;9.158;2023-03-14T03:21:06;97905.19;;;11.05;78.63
34177;BME280;20450;49.074;9.158;2023-03-14T03:23:34;97899.78;;;11.10;78.24
34177;BME280;20450;49.074;9.158;2023-03-14T03:26:01;97887.63;;;11.08;78.05
34177;BME280;20450;49.074;9.158;2023-03-14T03:28:28;97885.69;;;11.03;78.86
34177;BME280;20450;49.074;9.158;2023-03-14T03:30:56;97882.94;;;10.98;78.51
34177;BME280;20450;49.074;9.158;2023-03-14T03:33:23;97885.91;;;10.97;78.11
34177;BME280;20450;49.074;9.158;2023-03-14T03:35:52;97877.75;;;10.87;78.88
34177;BME280;20450;49.074;9.158;2023-03-14T03:38:26;97876.41;;;10.89;78.67
34177;BME280;20450;49.074;9.158;2023-03-14T03:40:54;97885.03;;;10.86;79.26
34177;BME280;20450;49.074;9.158;2023-03-14T03:43:24;97884.13;;;10.76;79.00
34177;BME280;20450;49.074;9.158;2023-03-14T03:45:51;97881.97;;;10.73;79.69
34177;BME280;20450;49.074;9.158;2023-03-14T03:48:19;97874.13;;;10.71;78.80
34177;BME280;20450;49.074;9.158;2023-03-14T03:50:47;97879.28;;;10.73;78.59
34177;BME280;20450;49.074;9.158;2023-03-14T03:53:21;97876.28;;;10.74;78.36
34177;BME280;20450;49.074;9.158;2023-03-14T03:55:59;97873.91;;;10.78;78.14
34177;BME280;20450;49.074;9.158;2023-03-14T03:58:27;97870.88;;;10.74;77.85
34177;BME280;20450;49.074;9.158;2023-03-14T04:00:55;97870.56;;;10.66;79.38
34177;BME280;20450;49.074;9.158;2023-03-14T04:03:22;97867.53;;;10.57;78.95
34177;BME280;20450;49.074;9.158;2023-03-14T04:06:03;97877.75;;;10.55;78.75
34177;BME280;20450;49.074;9.158;2023-03-14T04:08:43;97870.75;;;10.54;79.51
34177;BME280;20450;49.074;9.158;2023-03-14T04:11:32;97861.22;;;10.47;79.57
34177;BME280;20450;49.074;9.158;2023-03-14T04:14:10;97864.75;;;10.47;79.48
34177;BME280;20450;49.074;9.158;2023-03-14T04:16:38;97869.28;;;10.42;79.36
34177;BME280;20450;49.074;9.158;2023-03-14T04:19:10;97868.75;;;10.45;79.15
34177;BME280;20450;49.074;9.158;2023-03-14T04:21:37;97868.50;;;10.46;78.68
34177;BME280;20450;49.074;9.158;2023-03-14T04:24:06;97870.75;;;10.54;77.86
34177;BME280;20450;49.074;9.158;2023-03-14T04:26:35;97859.94;;;10.54;77.73
34177;BME280;20450;49.074;9.158;2023-03-14T04:29:03;97869.13;;;10.53;77.94
34177;BME280;20450;49.074;9.158;2023-03-14T04:31:30;97870.44;;;10.51;77.35
34177;BME280;20450;49.074;9.158;2023-03-14T04:33:57;97856.69;;;10.52;77.25
34177;BME280;20450;49.074;9.158;2023-03-14T04:36:32;97862.06;;;10.52;77.93
34177;BME280;20450;49.074;9.158;2023-03-14T04:39:03;97860.16;;;10.48;78.08
34177;BME280;20450;49.074;9.158;2023-03-14T04:41:32;97858.28;;;10.48;76.86
34177;BME280;20450;49.074;9.158;2023-03-14T04:43:59;97859.63;;;10.51;77.19
34177;BME280;20450;49.074;9.158;2023-03-14T04:46:27;97850.47;;;10.52;75.84
34177;BME280;20450;49.074;9.158;2023-03-14T04:48:54;97849.66;;;10.51;76.87
34177;BME280;20450;49.074;9.158;2023-03-14T04:51:21;97848.56;;;10.47;76.65
34177;BME280;20450;49.074;9.158;2023-03-14T04:53:47;97842.34;;;10.47;76.00
34177;BME280;20450;49.074;9.158;2023-03-14T04:56:14;97845.59;;;10.49;75.12
34177;BME280;20450;49.074;9.158;2023-03-14T04:58:44;97834.25;;;10.47;75.64
34177;BME280;20450;49.074;9.158;2023-03-14T05:01:14;97827.47;;;10.44;75.27
34177;BME280;20450;49.074;9.158;2023-03-14T05:03:51;97821.50;;;10.42;75.05
34177;BME280;20450;49.074;9.158;2023-03-14T05:06:27;97821.00;;;10.45;74.76
34177;BME280;20450;49.074;9.158;2023-03-14T05:09:09;97814.50;;;10.41;74.70
34177;BME280;20450;49.074;9.158;2023-03-14T05:12:08;97815.84;;;10.44;74.04
34177;BME280;20450;49.074;9.158;2023-03-14T05:14:54;97816.69;;;10.44;74.35
34177;BME280;20450;49.074;9.158;2023-03-14T05:17:47;97807.44;;;10.35;75.19
34177;BME280;20450;49.074;9.158;2023-03-14T05:20:40;97805.50;;;10.31;75.16
34177;BME280;20450;49.074;9.158;2023-03-14T05:23:39;97808.41;;;10.24;75.40
34177;BME280;20450;49.074;9.158;2023-03-14T05:26:35;97802.56;;;10.32;74.64
34177;BME280;20450;49.074;9.158;2023-03-14T05:29:30;97806.03;;;10.33;74.16
34177;BME280;20450;49.074;9.158;2023-03-14T05:32:27;97807.38;;;10.30;74.90
34177;BME280;20450;49.074;9.158;2023-03-14T05:35:09;97811.19;;;10.34;74.43
34177;BME280;20450;49.074;9.158;2023-03-14T05:37:51;97803.44;;;10.43;73.93
34177;BME280;20450;49.074;9.158;2023-03-14T05:40:21;97805.66;;;10.51;73.21
34177;BME280;20450;49.074;9.158;2023-03-14T05:43:01;97799.97;;;10.47;73.30
34177;BME280;20450;49.074;9.158;2023-03-14T05:45:46;97802.94;;;10.46;nan
34177;BME280;20450;49.074;9.158;2023-03-14T05:48:48;97804.81;;;10.45;74.12
34177;BME280;20450;49.074;9.158;2023-03-14T05:51:34;97800.75;;;10.48;73.75
34177;BME280;20450;49.074;9.158;2023-03-14T05:54:33;97805.66;;;10.51;73.42
34177;BME280;20450;49.074;9.158;2023-03-14T05:57:12;97805.19;;;10.59;73.13
34177;BME280;20450;49.074;9.158;2023-03-14T05:59:59;97798.41;;;10.56;72.93
34177;BME280;20450;49.074;9.158;2023-03-14T06:02:38;97797.84;;;10.54;73.40
34177;BME280;20450;49.074;9.158;2023-03-14T06:05:17;97795.72;;;10.56;72.75
34177;BME280;20450;49.074;9.158;2023-03-14T06:07:44;97808.97;;;10.58;72.72
34177;BME280;20450;49.074;9.158;2023-03-14T06:10:11;97797.34;;;10.57;72.87
34177;BME280;20450;49.074;9.158;2023-03-14T06:12:38;97802.44;;;10.54;73.81
34177;BME280;20450;49.074;9.158;2023-03-14T06:15:06;97803.81;;;10.56;73.64
34177;BME280;20450;49.074;9.158;2023-03-14T06:17:34;97806.00;;;10.59;73.08
34177;BME280;20450;49.074;9.158;2023-03-14T06:20:06;97800.03;;;10.57;73.39
34177;BME280;20450;49.074;9.158;2023-03-14T06:22:35;97787.56;;;10.51;73.93
34177;BME280;20450;49.074;9.158;2023-03-14T06:25:03;97795.66;;;10.51;73.60
34177;BME280;20450;49.074;9.158;2023-03-14T06:27:31;97787.56;;;10.51;73.99
34177;BME280;20450;49.074;9.158;2023-03-14T06:29:59;97796.25;;;10.58;73.02
34177;BME280;20450;49.074;9.158;2023-03-14T06:32:26;97794.44;;;10.64;73.60
34177;BME280;20450;49.074;9.158;2023-03-14T06:34:57;97786.16;;;10.85;72.15
34177;BME280;20450;49.074;9.158;2023-03-14T06:37:24;97783.91;;;11.14;71.07
34177;BME280;20450;49.074;9.158;2023-03-14T06:39:53;97782.81;;;11.86;68.77
34177;BME280;20450;49.074;9.158;2023-03-14T06:42:42;97782.22;;;11.69;68.84
34177;BME280;20450;49.074;9.158;2023-03-14T06:45:10;97775.00;;;12.05;68.32
34177;BME280;20450;49.074;9.158;2023-03-14T06:47:37;97767.13;;;12.59;65.93
34177;BME280;20450;49.074;9.158;2023-03-14T06:50:36;97766.00;;;12.75;64.53
34177;BME280;20450;49.074;9.158;2023-03-14T06:53:03;97771.75;;;12.43;65.52
34177;BME280;20450;49.074;9.158;2023-03-14T06:55:44;97772.78;;;12.82;64.44
34177;BME280;20450;49.074;9.158;2023-03-14T06:58:21;97762.69;;;13.71;61.08
34177;BME280;20450;49.074;9.158;2023-03-14T07:00:49;97766.47;;;13.70;61.35
34177;BME280;20450;49.074;9.158;2023-03-14T07:03:23;97775.81;;;13.93;61.39
34177;BME280;20450;49.074;9.158;2023-03-14T07:05:53;97769.25;;;12.62;64.50
34177;BME280;20450;49.074;9.158;2023-03-14T07:08:20;97775.25;;;12.39;64.93
34177;BME280;20450;49.074;9.158;2023-03-14T07:10:53;97779.84;;;11.98;66.47
34177;BME280;20450;49.074;9.158;2023-03-14T07:13:24;97783.34;;;11.83;66.78
34177;BME280;20450;49.074;9.158;2023-03-14T07:15:59;97785.13;;;11.53;67.84
34177;BME280;20450;49.074;9.158;2023-03-14T07:18:26;97785.66;;;11.55;69.01
34177;BME280;20450;49.074;9.158;2023-03-14T07:20:55;97791.88;;;11.50;69.03
34177;BME280;20450;49.074;9.158;2023-03-14T07:23:24;97789.75;;;11.57;69.15
34177;BME280;20450;49.074;9.158;2023-03-14T07:25:54;97787.53;;;11.49;68.78
34177;BME280;20450;49.074;9.158;2023-03-14T07:28:24;97786.22;;;11.57;68.59
34177;BME280;20450;49.074;9.158;2023-03-14T07:30:58;97778.09;;;11.57;68.59
34177;BME280;20450;49.074;9.158;2023-03-14T07:33:30;97781.91;;;11.56;67.67
34177;BME280;20450;49.074;9.158;2023-03-14T07:35:57;97773.25;;;11.59;68.24
34177;BME280;20450;49.074;9.158;2023-03-14T07:38:27;97768.38;;;11.56;68.42
34177;BME280;20450;49.074;9.158;2023-03-14T07:41:14;97765.44;;;11.62;68.77
34177;BME280;20450;49.074;9.158;2023-03-14T07:43:53;97773.03;;;11.70;67.60
34177;BME280;20450;49.074;9.158;2023-03-14T07:46:20;97779.78;;;11.68;68.31
34177;BME280;20450;49.074;9.158;2023-03-14T07:48:47;97785.53;;;11.92;67.39
34177;BME280;20450;49.074;9.158;2023-03-14T07:51:15;97791.22;;;12.25;67.00
34177;BME280;20450;49.074;9.158;2023-03-14T07:53:42;97783.38;;;12.54;66.83
34177;BME280;20450;49.074;9.158;2023-03-14T07:56:09;97780.91;;;12.82;65.64
34177;BME280;20450;49.074;9.158;2023-03-14T07:58:37;97779.75;;;13.13;63.44
34177;BME280;20450;49.074;9.158;2023-03-14T08:01:05;97774.31;;;13.77;63.71
34177;BME280;20450;49.074;9.158;2023-03-14T08:03:32;97773.16;;;15.12;56.95
34177;BME280;20450;49.074;9.158;2023-03-14T08:06:03;97765.25;;;15.16;55.26
34177;BME280;20450;49.074;9.158;2023-03-14T08:08:30;97762.59;;;15.77;54.44
34177;BME280;20450;49.074;9.158;2023-03-14T08:11:02;97756.00;;;17.38;51.84
34177;BME280;20450;49.074;9.158;2023-03-14T08:13:31;97756.34;;;17.86;50.70
34177;BME280;20450;49.074;9.158;2023-03-14T08:16:00;97760.16;;;18.12;48.28
34177;BME280;20450;49.074;9.158;2023-03-14T08:18:27;97759.25;;;17.53;48.89
34177;BME280;20450;49.074;9.158;2023-03-14T08:20:54;97755.06;;;17.83;48.87
34177;BME280;20450;49.074;9.158;2023-03-14T08:23:21;97765.88;;;17.88;48.11
34177;BME280;20450;49.074;9.158;2023-03-14T08:25:48;97768.13;;;17.05;49.47
34177;BME280;20450;49.074;9.158;2023-03-14T08:28:17;97771.13;;;16.90;50.45
34177;BME280;20450;49.074;9.158;2023-03-14T08:30:45;97772.47;;;16.42;51.08
34177;BME280;20450;49.074;9.158;2023-03-14T08:33:15;97764.78;;;15.74;51.38
34177;BME280;20450;49.074;9.158;2023-03-14T08:35:41;97791.94;;;15.37;53.27
34177;BME280;20450;49.074;9.158;2023-03-14T08:38:08;97778.00;;;15.44;53.35
34177;BME280;20450;49.074;9.158;2023-03-14T08:40:36;97788.13;;;15.38;52.86
34177;BME280;20450;49.074;9.158;2023-03-14T08:43:03;97787.16;;;14.77;54.24
34177;BME280;20450;49.074;9.158;2023-03-14T08:45:30;97757.63;;;14.37;54.29
34177;BME280;20450;49.074;9.158;2023-03-14T08:47:57;97798.78;;;14.49;55.23
34177;BME280;20450;49.074;9.158;2023-03-14T08:50:25;97787.28;;;15.14;54.02
34177;BME280;20450;49.074;9.158;2023-03-14T08:52:53;97786.75;;;15.59;52.33
34177;BME280;20450;49.074;9.158;2023-03-14T08:55:19;97782.81;;;15.89;52.11
34177;BME280;20450;49.074;9.158;2023-03-14T08:57:47;97789.47;;;15.83;52.13
34177;BME280;20450;49.074;9.158;2023-03-14T09:00:15;97803.66;;;15.56;52.89
34177;BME280;20450;49.074;9.158;2023-03-14T09:02:42;97801.03;;;15.51;54.94
34177;BME280;20450;49.074;9.158;2023-03-14T09:05:10;97820.19;;;15.65;55.86
34177;BME280;20450;49.074;9.158;2023-03-14T09:07:39;97825.28;;;15.48;56.04
34177;BME280;20450;49.074;9.158;2023-03-14T09:10:08;97838.06;;;15.47;55.74
34177;BME280;20450;49.074;9.158;2023-03-14T09:12:36;97835.69;;;15.17;57.05
34177;BME280;20450;49.074;9.158;2023-03-14T09:15:09;97852.03;;;15.12;58.44
34177;BME280;20450;49.074;9.158;2023-03-14T09:17:36;97849.31;;;14.84;58.83
34177;BME280;20450;49.074;9.158;2023-03-14T09:20:04;97842.16;;;14.26;62.32
34177;BME280;20450;49.074;9.158;2023-03-14T09:22:31;97859.00;;;13.69;64.27
34177;BME280;20450;49.074;9.158;2023-03-14T09:24:59;97849.56;;;13.56;65.14
34177;BME280;20450;49.074;9.158;2023-03-14T09:27:26;97857.03;;;12.91;67.79
34177;BME280;20450;49.074;9.158;2023-03-14T09:29:53;97855.94;;;12.92;68.38
34177;BME280;20450;49.074;9.158;2023-03-14T09:32:20;97861.91;;;12.69;68.62
34177;BME280;20450;49.074;9.158;2023-03-14T09:35:17;97848.66;;;12.67;69.86
34177;BME280;20450;49.074;9.158;2023-03-14T09:37:44;97851.31;;;12.02;72.02
34177;BME280;20450;49.074;9.158;2023-03-14T09:40:15;97853.69;;;11.93;71.71
34177;BME280;20450;49.074;9.158;2023-03-14T09:42:44;97857.22;;;11.94;73.04
34177;BME280;20450;49.074;9.158;2023-03-14T09:45:23;97857.28;;;12.19;72.53
34177;BME280;20450;49.074;9.158;2023-03-14T09:47:57;97857.81;;;12.11;72.28
34177;BME280;20450;49.074;9.158;2023-03-14T09:50:31;97855.59;;;11.98;73.83
34177;BME280;20450;49.074;9.158;2023-03-14T09:53:07;97864.78;;;11.92;74.24
34177;BME280;20450;49.074;9.158;2023-03-14T09:55:42;97856.06;;;11.65;75.49
34177;BME280;20450;49.074;9.158;2023-03-14T09:58:13;97852.81;;;11.73;74.63
34177;BME280;20450;49.074;9.158;2023-03-14T10:00:43;97847.97;;;11.75;76.04
34177;BME280;20450;49.074;9.158;2023-03-14T10:03:22;97837.50;;;12.09;74.24
34177;BME280;20450;49.074;9.158;2023-03-14T10:05:52;97837.53;;;12.44;72.56
34177;BME280;20450;49.074;9.158;2023-03-14T10:08:21;97830.19;;;12.89;69.44
34177;BME280;20450;49.074;9.158;2023-03-14T10:10:49;97830.16;;;13.19;67.28
34177;BME280;20450;49.074;9.158;2023-03-14T10:13:18;97830.06;;;13.49;67.00
34177;BME280;20450;49.074;9.158;2023-03-14T10:15:50;97836.88;;;13.37;65.02
34177;BME280;20450;49.074;9.158;2023-03-14T10:18:19;97838.94;;;13.70;65.61
34177;BME280;20450;49.074;9.158;2023-03-14T10:20:48;97841.59;;;13.80;65.15
34177;BME280;20450;49.074;9.158;2023-03-14T10:23:23;97841.44;;;13.51;64.91
34177;BME280;20450;49.074;9.158;2023-03-14T10:26:03;97843.88;;;13.58;64.87
34177;BME280;20450;49.074;9.158;2023-03-14T10:28:38;97835.72;;;13.58;64.49
34177;BME280;20450;49.074;9.158;2023-03-14T10:31:09;97840.97;;;13.29;65.15
34177;BME280;20450;49.074;9.158;2023-03-14T10:33:37;97842.53;;;13.50;64.64
34177;BME280;20450;49.074;9.158;2023-03-14T10:36:15;97847.09;;;13.65;64.36
34177;BME280;20450;49.074;9.158;2023-03-14T10:38:47;97850.22;;;13.18;65.75
34177;BME280;20450;49.074;9.158;2023-03-14T10:41:19;97855.91;;;13.27;66.74
34177;BME280;20450;49.074;9.158;2023-03-14T10:43:51;97856.38;;;13.49;66.85
34177;BME280;20450;49.074;9.158;2023-03-14T10:46:24;97859.31;;;13.57;66.91
34177;BME280;20450;49.074;9.158;2023-03-14T10:49:25;97851.22;;;13.52;65.57
34177;BME280;20450;49.074;9.158;2023-03-14T10:51:54;97867.03;;;13.25;67.20
34177;BME280;20450;49.074;9.158;2023-03-14T10:54:22;97872.19;;;13.27;67.88
34177;BME280;20450;49.074;9.158;2023-03-14T10:56:59;97875.72;;;13.12;68.24
34177;BME280;20450;49.074;9.158;2023-03-14T10:59:30;97871.63;;;13.25;68.08
34177;BME280;20450;49.074;9.158;2023-03-14T11:02:19;97861.88;;;13.14;66.21
34177;BME280;20450;49.074;9.158;2023-03-14T11:05:06;97860.53;;;13.11;65.93
34177;BME280;20450;49.074;9.158;2023-03-14T11:07:41;97868.41;;;12.93;67.69
34177;BME280;20450;49.074;9.158;2023-03-14T11:10:17;97868.16;;;12.99;66.51
34177;BME280;20450;49.074;9.158;2023-03-14T11:13:04;97870.84;;;12.64;68.86
34177;BME280;20450;49.074;9.158;2023-03-14T11:15:49;97879.75;;;12.40;72.69
34177;BME280;20450;49.074;9.158;2023-03-14T11:18:51;97880.06;;;12.43;70.91
34177;BME280;20450;49.074;9.158;2023-03-14T11:21:29;97874.34;;;12.40;72.68
34177;BME280;20450;49.074;9.158;2023-03-14T11:24:14;97886.84;;;12.56;72.45
34177;BME280;20450;49.074;9.158;2023-03-14T11:27:11;97877.03;;;12.25;73.37
34177;BME280;20450;49.074;9.158;2023-03-14T11:29:53;97882.44;;;12.25;73.06
34177;BME280;20450;49.074;9.158;2023-03-14T11:32:35;97891.16;;;12.52;73.33
34177;BME280;20450;49.074;9.158;2023-03-14T11:35:17;97893.59;;;12.53;73.41
34177;BME280;20450;49.074;9.158;2023-03-14T11:37:54;97885.47;;;12.53;73.43
34177;BME280;20450;49.074;9.158;2023-03-14T11:40:31;97887.59;;;12.21;73.52
34177;BME280;20450;49.074;9.158;2023-03-14T11:43:06;97889.75;;;12.19;72.07
34177;BME280;20450;49.074;9.158;2023-03-14T11:45:43;97905.75;;;12.26;72.09
34177;BME280;20450;49.074;9.158;2023-03-14T11:48:27;97903.56;;;12.28;71.24
34177;BME280;20450;49.074;9.158;2023-03-14T11:51:08;97899.53;;;12.35;69.91
34177;BME280;20450;49.074;9.158;2023-03-14T11:54:04;97901.97;;;12.37;69.84
34177;BME280;20450;49.074;9.158;2023-03-14T11:56:46;97897.94;;;12.39;69.96
34177;BME280;20450;49.074;9.158;2023-03-14T11:59:27;97926.88;;;12.34;69.90
34177;BME280;20450;49.074;9.158;2023-03-14T12:02:17;97932.28;;;12.34;70.40
34177;BME280;20450;49.074;9.158;2023-03-14T12:05:04;97923.59;;;12.27;70.96
34177;BME280;20450;49.074;9.158;2023-03-14T12:08:20;97943.13;;;12.29;70.99
34177;BME280;20450;49.074;9.158;2023-03-14T12:11:05;97943.88;;;12.19;70.82
34177;BME280;20450;49.074;9.158;2023-03-14T12:13:39;97957.94;;;12.16;69.68
34177;BME280;20450;49.074;9.158;2023-03-14T12:16:26;97972.56;;;12.20;69.96
34177;BME280;20450;49.074;9.158;2023-03-14T12:19:30;97982.34;;;12.21;70.45
34177;BME280;20450;49.074;9.158;2023-03-14T12:22:21;97999.91;;;12.14;70.84
34177;BME280;20450;49.074;9.158;2023-03-14T12:24:56;98012.13;;;12.26;70.62
34177;BME280;20450;49.074;9.158;2023-03-14T12:27:48;98017.25;;;12.18;69.60
34177;BME280;20450;49.074;9.158;2023-03-14T12:30:32;98027.34;;;11.80;67.79
34177;BME280;20450;49.074;9.158;2023-03-14T12:33:19;98049.94;;;11.33;68.94
34177;BME280;20450;49.074;9.158;2023-03-14T12:36:17;98053.59;;;11.17;70.00
34177;BME280;20450;49.074;9.158;2023-03-14T12:39:19;98073.75;;;11.04;68.86
34177;BME280;20450;49.074;9.158;2023-03-14T12:41:52;98092.00;;;10.92;69.01
34177;BME280;20450;49.074;9.158;2023-03-14T12:44:45;98095.41;;;10.83;69.63
34177;BME280;20450;49.074;9.158;2023-03-14T12:50:21;98140.44;;;10.77;69.48
34177;BME280;20450;49.074;9.158;2023-03-14T12:53:33;98130.53;;;10.61;69.28
34177;BME280;20450;49.074;9.158;2023-03-14T12:56:24;98145.22;;;10.70;68.53
34177;BME280;20450;49.074;9.158;2023-03-14T12:59:17;98155.66;;;10.62;68.11
34177;BME280;20450;49.074;9.158;2023-03-14T13:01:59;98164.75;;;10.56;67.99
34177;BME280;20450;49.074;9.158;2023-03-14T13:04:31;98162.75;;;10.68;67.74
34177;BME280;20450;49.074;9.158;2023-03-14T13:07:11;98167.44;;;10.77;66.41
34177;BME280;20450;49.074;9.158;2023-03-14T13:10:01;98180.19;;;10.82;64.23
34177;BME280;20450;49.074;9.158;2023-03-14T13:12:38;98188.06;;;10.83;64.32
34177;BME280;20450;49.074;9.158;2023-03-14T13:15:18;98196.28;;;10.72;62.13
34177;BME280;20450;49.074;9.158;2023-03-14T13:17:51;98196.03;;;10.73;61.39
34177;BME280;20450;49.074;9.158;2023-03-14T13:20:26;98208.03;;;10.82;62.38
34177;BME280;20450;49.074;9.158;2023-03-14T13:22:57;98218.84;;;10.82;60.89
34177;BME280;20450;49.074;9.158;2023-03-14T13:25:29;98218.50;;;10.79;59.83
34177;BME280;20450;49.074;9.158;2023-03-14T13:27:59;98246.47;;;10.89;60.06
34177;BME280;20450;49.074;9.158;2023-03-14T13:30:28;98248.56;;;11.04;58.03
34177;BME280;20450;49.074;9.158;2023-03-14T13:33:04;98246.13;;;11.02;57.34
34177;BME280;20450;49.074;9.158;2023-03-14T13:35:39;98247.81;;;11.08;55.86
34177;BME280;20450;49.074;9.158;2023-03-14T13:38:15;98263.06;;;11.19;55.40
34177;BME280;20450;49.074;9.158;2023-03-14T13:40:46;98274.72;;;11.20;53.12